Time;durP1;ratioP1;P1;durP2;ratioP2;P2;SDS_P1;SDS_P2;PMS_P1;PMS_P2;Temp;Humidity;BMP_temperature;BMP_pressure;BME280_temperature;BME280_humidity;BME280_pressure;Samples;Min_cycle;Max_cycle;Signal;HPM_P1;HPM_P2
2021/05/03 00:04:05;;;;;;;8.40;4.83;;;;;2.60;101645.00;;;;10496530;28;20194;-75
2021/05/03 00:09:07;;;;;;;6.73;5.03;;;;;2.60;101649.00;;;;10496261;28;20209;-75
2021/05/03 00:14:09;;;;;;;6.73;4.97;;;;;2.50;101638.00;;;;10479046;28;20272;-75
2021/05/03 00:19:10;;;;;;;6.93;5.30;;;;;2.40;101635.00;;;;10495788;28;20224;-75
2021/05/03 00:24:12;;;;;;;7.07;5.33;;;;;2.40;101638.00;;;;10478770;28;20284;-75
2021/05/03 00:29:13;;;;;;;6.70;5.20;;;;;2.30;101634.00;;;;10479245;28;20201;-75
2021/05/03 00:34:15;;;;;;;6.30;5.03;;;;;2.20;101633.00;;;;10478456;28;20217;-75
2021/05/03 00:39:16;;;;;;;6.87;5.50;;;;;2.10;101627.00;;;;10462164;28;20194;-75
2021/05/03 00:44:17;;;;;;;5.93;5.00;;;;;2.00;101631.00;;;;10479087;28;20193;-75
2021/05/03 00:49:19;;;;;;;8.53;5.57;;;;;1.90;101634.00;;;;10427823;28;20198;-75
2021/05/03 00:54:20;;;;;;;10.17;5.50;;;;;1.80;101632.00;;;;10395183;28;20226;-75
2021/05/03 00:59:22;;;;;;;10.47;5.13;;;;;1.70;101635.00;;;;10444080;28;20249;-75
2021/05/03 01:04:23;;;;;;;8.27;6.03;;;;;1.70;101638.00;;;;10427359;28;20186;-75
2021/05/03 01:09:25;;;;;;;7.40;4.90;;;;;1.70;101639.00;;;;10444227;28;20190;-75
2021/05/03 01:14:26;;;;;;;5.50;4.87;;;;;1.70;101634.00;;;;10443575;28;20218;-75
2021/05/03 01:19:29;;;;;;;5.93;4.33;;;;;1.60;101629.00;;;;10427765;28;20308;-75
2021/05/03 01:24:31;;;;;;;7.33;4.73;;;;;1.50;101635.00;;;;10469308;28;20334;-75
2021/05/03 01:29:32;;;;;;;7.23;4.87;;;;;1.50;101629.00;;;;10468321;28;20292;-75
2021/05/03 01:34:33;;;;;;;6.53;3.83;;;;;1.50;101639.00;;;;10449809;28;20197;-75
2021/05/03 01:39:34;;;;;;;6.73;4.30;;;;;1.50;101627.00;;;;10410316;28;20197;-75
2021/05/03 01:44:36;;;;;;;8.83;3.67;;;;;1.40;101647.00;;;;10426421;28;20190;-76
2021/05/03 01:49:39;;;;;;;5.90;3.73;;;;;1.40;101639.00;;;;10449470;28;20198;-75
2021/05/03 01:54:41;;;;;;;6.53;3.80;;;;;1.50;101640.00;;;;10450672;28;20194;-76
2021/05/03 01:59:43;;;;;;;5.50;3.80;;;;;1.60;101643.00;;;;10481506;28;20240;-76
2021/05/03 02:04:51;;;;;;;5.03;3.93;;;;;1.60;101646.00;;;;10466263;28;20216;-76
2021/05/03 02:09:53;;;;;;;4.17;3.60;;;;;1.50;101646.00;;;;10449604;28;20205;-76
2021/05/03 02:15:08;;;;;;;4.90;4.00;;;;;1.50;101633.00;;;;10453140;28;20201;-76
2021/05/03 02:20:10;;;;;;;5.80;3.97;;;;;1.40;101637.00;;;;10449353;28;20573;-76
2021/05/03 02:25:12;;;;;;;6.20;3.90;;;;;1.40;101634.00;;;;10448898;28;20208;-76
2021/05/03 02:30:16;;;;;;;6.17;4.03;;;;;1.40;101637.00;;;;10449069;28;20210;-76
2021/05/03 02:35:20;;;;;;;6.93;4.00;;;;;1.40;101626.00;;;;10465216;28;20252;-76
2021/05/03 02:40:26;;;;;;;4.70;3.53;;;;;1.60;101625.00;;;;10482510;28;20202;-76
2021/05/03 02:45:28;;;;;;;4.33;3.50;;;;;1.90;101620.00;;;;10464835;28;20201;-76
2021/05/03 02:50:29;;;;;;;5.40;3.60;;;;;2.10;101625.00;;;;10481814;28;20205;-76
2021/05/03 02:55:31;;;;;;;5.50;3.80;;;;;2.20;101616.00;;;;10498131;28;20197;-76
2021/05/03 03:00:35;;;;;;;5.10;3.97;;;;;2.20;101614.00;;;;10439274;28;20190;-76
2021/05/03 03:05:36;;;;;;;5.57;3.67;;;;;2.20;101617.00;;;;10451479;28;20208;-76
2021/05/03 03:10:38;;;;;;;7.23;4.13;;;;;2.20;101605.00;;;;10447272;28;20296;-76
2021/05/03 03:15:39;;;;;;;5.50;4.50;;;;;2.20;101598.00;;;;10464361;28;20197;-76
2021/05/03 03:20:41;;;;;;;3.97;3.67;;;;;2.30;101599.00;;;;10480946;28;20189;-76
2021/05/03 03:25:43;;;;;;;5.17;3.93;;;;;2.40;101599.00;;;;10447157;28;20201;-76
2021/05/03 03:30:44;;;;;;;5.63;4.20;;;;;2.40;101601.00;;;;10479679;28;20680;-76
2021/05/03 03:35:46;;;;;;;8.27;4.20;;;;;2.40;101592.00;;;;10497028;28;20654;-76
2021/05/03 03:40:48;;;;;;;8.77;4.20;;;;;2.40;101590.00;;;;10479753;28;20255;-76
2021/05/03 03:45:49;;;;;;;8.63;4.80;;;;;2.40;101593.00;;;;10479560;28;20201;-76
2021/05/03 03:50:50;;;;;;;7.43;3.93;;;;;2.40;101593.00;;;;10463057;28;20233;-76
2021/05/03 03:55:52;;;;;;;6.50;3.90;;;;;2.30;101591.00;;;;10479444;28;20201;-76
2021/05/03 04:00:54;;;;;;;9.30;4.17;;;;;2.30;101589.00;;;;10462803;28;20213;-76
2021/05/03 04:06:13;;;;;;;6.00;4.23;;;;;2.40;101594.00;;;;10497809;28;20209;-76
2021/05/03 04:11:27;;;;;;;5.50;4.03;;;;;2.70;101596.00;;;;10479032;28;20937;-76
2021/05/03 04:22:16;;;;;;;4.83;3.97;;;;;3.30;101595.00;;;;10478540;28;20228;-76
2021/05/03 04:27:15;;;;;;;5.37;3.30;;;;;3.50;101603.00;;;;10486718;28;20192;-76
2021/05/03 04:32:16;;;;;;;4.10;3.47;;;;;3.60;101597.00;;;;10453327;28;20205;-76
2021/05/03 04:37:18;;;;;;;6.30;3.80;;;;;3.70;101605.00;;;;10469524;28;20652;-76
2021/05/03 04:42:19;;;;;;;11.67;4.27;;;;;3.90;101596.00;;;;10504018;28;20209;-76
2021/05/03 04:47:21;;;;;;;6.10;3.90;;;;;4.00;101600.00;;;;10469006;28;20255;-76
2021/05/03 04:52:22;;;;;;;7.60;3.67;;;;;4.10;101594.00;;;;10469192;28;20213;-76
2021/05/03 04:57:23;;;;;;;5.83;3.87;;;;;4.30;101597.00;;;;10469621;28;20209;-76
2021/05/03 05:02:26;;;;;;;6.97;4.03;;;;;4.50;101588.00;;;;10502215;28;20229;-76
2021/05/03 05:07:28;;;;;;;5.60;4.10;;;;;4.70;101602.00;;;;10485352;28;20655;-76
2021/05/03 05:12:30;;;;;;;6.47;4.93;;;;;5.00;101601.00;;;;10468483;28;20226;-76
2021/05/03 05:17:32;;;;;;;8.60;5.43;;;;;5.10;101588.00;;;;10460589;28;20268;-76
2021/05/03 05:22:37;;;;;;;9.63;5.50;;;;;5.20;101590.00;;;;10426871;28;20282;-76
2021/05/03 05:27:38;;;;;;;7.07;5.20;;;;;5.30;101593.00;;;;10453493;28;20264;-76
2021/05/03 05:32:40;;;;;;;9.13;5.80;;;;;5.60;101592.00;;;;10443431;28;20222;-76
2021/05/03 05:37:41;;;;;;;10.37;6.67;;;;;6.20;101595.00;;;;10442610;28;20205;-76
2021/05/03 05:42:42;;;;;;;15.07;6.77;;;;;6.70;101586.00;;;;10432040;28;20245;-76
2021/05/03 05:47:44;;;;;;;7.70;6.30;;;;;7.20;101588.00;;;;10476388;28;20724;-76
2021/05/03 05:52:46;;;;;;;10.17;6.90;;;;;7.90;101586.00;;;;10476087;28;20222;-77
2021/05/03 05:57:47;;;;;;;10.73;7.67;;;;;8.50;101584.00;;;;10459620;28;20225;-77
2021/05/03 06:02:48;;;;;;;11.97;7.77;;;;;9.10;101590.00;;;;10466464;28;20201;-76
2021/05/03 06:07:51;;;;;;;10.23;8.20;;;;;9.70;101582.00;;;;10478485;28;20296;-77
2021/05/03 06:12:52;;;;;;;12.07;9.20;;;;;10.30;101583.00;;;;10449563;28;20325;-77
2021/05/03 06:17:53;;;;;;;18.60;9.90;;;;;10.60;101587.00;;;;10447142;28;20206;-77
2021/05/03 06:22:59;;;;;;;13.40;9.10;;;;;10.90;101582.00;;;;10479684;28;20189;-77
2021/05/03 06:28:01;;;;;;;19.40;11.20;;;;;11.00;101584.00;;;;10480410;28;20200;-77
2021/05/03 06:33:03;;;;;;;19.87;11.33;;;;;11.40;101588.00;;;;10456666;28;20222;-77
2021/05/03 06:38:06;;;;;;;14.30;11.60;;;;;11.40;101596.00;;;;10456919;28;20538;-77
2021/05/03 06:43:07;;;;;;;18.47;12.40;;;;;11.30;101589.00;;;;10439676;28;20224;-77
2021/05/03 06:48:09;;;;;;;20.73;13.07;;;;;11.80;101593.00;;;;10422980;28;20198;-77
2021/05/03 06:53:12;;;;;;;18.40;14.27;;;;;12.00;101584.00;;;;10423533;28;20222;-77
2021/05/03 06:58:15;;;;;;;21.50;14.50;;;;;12.30;101590.00;;;;10459683;28;20545;-77
2021/05/03 07:03:16;;;;;;;17.10;14.17;;;;;12.30;101593.00;;;;10464233;28;20194;-77
2021/05/03 07:08:23;;;;;;;17.37;15.57;;;;;12.50;101596.00;;;;10430982;28;20225;-77
2021/05/03 07:13:25;;;;;;;19.50;15.13;;;;;13.20;101590.00;;;;10464478;28;20210;-78
2021/05/03 07:18:26;;;;;;;18.47;14.57;;;;;13.90;101581.00;;;;10413299;28;20201;-77
2021/05/03 07:23:28;;;;;;;16.73;14.03;;;;;14.30;101595.00;;;;10489737;28;20279;-77
2021/05/03 07:28:29;;;;;;;16.67;14.53;;;;;14.50;101593.00;;;;10461717;28;20231;-77
2021/05/03 07:33:30;;;;;;;20.33;14.70;;;;;14.70;101579.00;;;;10495637;28;20632;-77
2021/05/03 07:38:32;;;;;;;18.37;15.07;;;;;15.10;101583.00;;;;10512979;28;20223;-77
2021/05/03 07:43:35;;;;;;;15.30;13.30;;;;;15.40;101575.00;;;;10462663;28;20193;-77
2021/05/03 07:48:37;;;;;;;17.57;14.47;;;;;15.90;101572.00;;;;10437235;28;20205;-77
2021/05/03 07:53:38;;;;;;;15.23;13.63;;;;;16.10;101574.00;;;;10491072;28;20229;-76
2021/05/03 07:58:43;;;;;;;14.37;12.87;;;;;15.70;101572.00;;;;10484358;28;20182;-77
2021/05/03 08:03:45;;;;;;;14.47;12.87;;;;;15.80;101573.00;;;;10458745;28;20205;-77
2021/05/03 08:08:47;;;;;;;18.03;13.83;;;;;16.40;101568.00;;;;10516288;28;20221;-77
2021/05/03 08:13:49;;;;;;;13.80;12.40;;;;;17.00;101556.00;;;;10495426;28;20220;-77
2021/05/03 08:18:50;;;;;;;16.00;11.90;;;;;17.80;101543.00;;;;10503300;28;20190;-77
2021/05/03 08:23:52;;;;;;;16.70;12.88;;;;;17.60;101544.00;;;;10504530;28;20209;-77
2021/05/03 08:28:53;;;;;;;12.97;11.67;;;;;17.60;101549.00;;;;10472093;28;20233;-77
2021/05/03 08:33:54;;;;;;;12.15;10.93;;;;;17.60;101541.00;;;;10463377;28;20261;-74
2021/05/03 08:38:56;;;;;;;11.37;10.17;;;;;17.80;101535.00;;;;10461075;28;20198;-77
2021/05/03 08:43:57;;;;;;;12.35;10.85;;;;;18.20;101540.00;;;;10474952;28;20661;-74
2021/05/03 08:49:07;;;;;;;11.85;10.02;;;;;18.60;101536.00;;;;10487030;28;20217;-74
2021/05/03 08:54:21;;;;;;;10.65;9.48;;;;;18.60;101533.00;;;;10474496;28;20217;-75
2021/05/03 08:59:23;;;;;;;12.98;9.88;;;;;18.90;101535.00;;;;10491965;28;20624;-75
2021/05/03 09:04:24;;;;;;;11.02;9.27;;;;;19.10;101541.00;;;;10501276;28;20224;-77
2021/05/03 09:09:37;;;;;;;12.25;8.55;;;;;19.40;101531.00;;;;10480248;28;20665;-75
2021/05/03 09:14:54;;;;;;;11.13;8.70;;;;;19.80;101529.00;;;;10484198;28;20213;-75
2021/05/03 09:20:19;;;;;;;9.45;8.23;;;;;19.40;101517.00;;;;10467077;28;20189;-75
2021/05/03 09:25:25;;;;;;;10.43;6.82;;;;;19.30;101516.00;;;;10463925;28;20197;-76
2021/05/03 09:30:36;;;;;;;12.40;7.38;;;;;19.90;101496.00;;;;10455584;28;20273;-77
2021/05/03 09:35:50;;;;;;;9.63;8.63;;;;;19.80;101494.00;;;;10411840;28;20205;-77
2021/05/03 09:41:06;;;;;;;9.98;6.75;;;;;20.10;101486.00;;;;10466842;28;20182;-76
2021/05/03 09:46:26;;;;;;;7.07;6.45;;;;;20.70;101487.00;;;;10482741;28;20197;-76
2021/05/03 09:51:53;;;;;;;7.43;6.20;;;;;21.00;101478.00;;;;10490193;28;20205;-77
2021/05/03 09:57:01;;;;;;;5.75;5.15;;;;;21.00;101471.00;;;;10496055;28;20197;-77
2021/05/03 10:02:19;;;;;;;8.88;6.40;;;;;20.80;101462.00;;;;10498591;28;20177;-76
2021/05/03 10:07:24;;;;;;;7.82;7.03;;;;;20.40;101457.00;;;;10482136;28;20856;-77
2021/05/03 10:12:26;;;;;;;7.97;6.45;;;;;20.30;101433.00;;;;10472302;28;20224;-76
2021/05/03 10:17:30;;;;;;;6.68;5.47;;;;;20.60;101437.00;;;;10481602;28;20201;-76
2021/05/03 10:22:33;;;;;;;5.70;5.20;;;;;21.10;101428.00;;;;10532366;28;20201;-76
2021/05/03 10:27:39;;;;;;;7.00;5.53;;;;;22.00;101402.00;;;;10446470;28;20198;-76
2021/05/03 10:32:41;;;;;;;6.50;5.30;;;;;22.60;101401.00;;;;10490028;28;20232;-74
2021/05/03 10:37:43;;;;;;;7.13;4.38;;;;;22.50;101393.00;;;;10493163;28;20198;-76
2021/05/03 10:43:03;;;;;;;5.95;5.45;;;;;22.60;101395.00;;;;10478580;28;20205;-76
2021/05/03 10:48:47;;;;;;;4.65;4.25;;;;;22.80;101391.00;;;;10455902;28;20201;-73
2021/05/03 10:53:49;;;;;;;8.65;5.05;;;;;23.00;101387.00;;;;10467431;28;20209;-72
2021/05/03 10:58:56;;;;;;;7.03;6.03;;;;;22.80;101373.00;;;;10453722;28;20240;-76
2021/05/03 11:03:58;;;;;;;7.28;5.82;;;;;21.90;101366.00;;;;10469029;28;20236;-76
2021/05/03 11:09:38;;;;;;;6.35;5.45;;;;;22.00;101343.00;;;;10479317;28;20294;-76
2021/05/03 11:14:41;;;;;;;6.20;4.95;;;;;22.50;101338.00;;;;10478392;28;20273;-76
2021/05/03 11:24:59;;;;;;;9.25;5.93;;;;;23.20;101338.00;;;;10483824;28;20185;-76
2021/05/03 11:45:30;;;;;;;6.78;5.18;;;;;22.10;101321.00;;;;10459535;28;20205;-76
2021/05/03 11:50:32;;;;;;;6.95;5.25;;;;;22.40;101310.00;;;;10441948;28;20202;-76
2021/05/03 11:55:34;;;;;;;7.22;6.57;;;;;22.40;101300.00;;;;10512586;28;20198;-76
2021/05/03 12:00:35;;;;;;;8.32;6.40;;;;;22.40;101285.00;;;;10512467;28;20190;-76
2021/05/03 12:05:37;;;;;;;7.45;5.57;;;;;22.60;101281.00;;;;10461471;28;20253;-76
2021/05/03 12:10:38;;;;;;;9.30;5.43;;;;;22.90;101272.00;;;;10512602;28;20213;-76
2021/05/03 12:15:40;;;;;;;7.07;5.13;;;;;23.20;101269.00;;;;10478389;28;20189;-74
2021/05/03 12:20:41;;;;;;;6.22;5.57;;;;;23.10;101264.00;;;;10475394;28;20226;-76
2021/05/03 12:26:01;;;;;;;7.68;6.18;;;;;23.60;101256.00;;;;10487938;28;20197;-77
2021/05/03 12:31:02;;;;;;;10.98;6.20;;;;;23.90;101250.00;;;;10462821;28;20630;-77
2021/05/03 12:36:10;;;;;;;5.53;4.35;;;;;23.60;101230.00;;;;10472525;28;20571;-77
2021/05/03 12:41:24;;;;;;;5.80;4.57;;;;;23.90;101219.00;;;;10479029;28;20216;-77
2021/05/03 12:46:36;;;;;;;5.78;5.20;;;;;23.90;101216.00;;;;10515948;28;20263;-77
2021/05/03 12:57:19;;;;;;;5.60;4.90;;;;;24.80;101203.00;;;;10484493;28;20205;-75
2021/05/03 13:02:32;;;;;;;4.07;3.78;;;;;24.60;101193.00;;;;10446505;28;20216;-75
2021/05/03 13:07:55;;;;;;;6.53;4.57;;;;;23.60;101183.00;;;;10468912;28;20240;-77
2021/05/03 13:28:29;;;;;;;5.97;4.28;;;;;23.50;101162.00;;;;10476384;28;20197;-76
2021/05/03 13:33:30;;;;;;;4.00;3.70;;;;;22.50;101149.00;;;;10427174;28;20221;-77
2021/05/03 13:38:32;;;;;;;4.72;3.45;;;;;25.50;101138.00;;;;10431400;28;20190;-77
2021/05/03 13:43:34;;;;;;;5.55;3.72;;;;;25.70;101134.00;;;;10485488;28;20194;-77
2021/05/03 13:48:36;;;;;;;4.60;3.88;;;;;26.70;101126.00;;;;10484854;28;20225;-77
2021/05/03 13:53:39;;;;;;;3.55;3.20;;;;;23.50;101129.00;;;;10444209;28;20272;-77
2021/05/03 13:58:40;;;;;;;5.03;4.15;;;;;22.60;101117.00;;;;10472317;28;20189;-77
2021/05/03 14:03:41;;;;;;;9.25;4.38;;;;;24.10;101112.00;;;;10440345;28;20252;-77
2021/05/03 14:08:43;;;;;;;4.72;4.32;;;;;22.00;101111.00;;;;10496125;28;20214;-77
2021/05/03 14:13:45;;;;;;;7.90;4.32;;;;;21.70;101089.00;;;;10465361;28;20677;-77
2021/05/03 14:18:46;;;;;;;5.05;4.20;;;;;24.80;101078.00;;;;10482609;28;20225;-77
2021/05/03 14:23:47;;;;;;;6.00;4.18;;;;;23.60;101075.00;;;;10468127;28;20197;-77
2021/05/03 14:28:55;;;;;;;4.28;3.88;;;;;23.30;101064.00;;;;10462090;28;20730;-77
2021/05/03 14:34:19;;;;;;;5.45;4.10;;;;;22.40;101050.00;;;;10457175;28;20244;-77
2021/05/03 14:39:20;;;;;;;4.93;3.97;;;;;20.80;101054.00;;;;10481513;28;20201;-77
2021/05/03 14:44:22;;;;;;;5.38;4.22;;;;;20.10;101027.00;;;;10499998;28;20182;-77
2021/05/03 14:49:49;;;;;;;5.72;3.88;;;;;20.30;101017.00;;;;10481054;28;20198;-77
2021/05/03 14:54:49;;;;;;;13.15;5.22;;;;;22.10;100999.00;;;;10464313;28;20217;-77
2021/05/03 14:59:50;;;;;;;4.47;3.63;;;;;21.20;100980.00;;;;10482188;28;20237;-77
2021/05/03 15:04:51;;;;;;;5.43;3.30;;;;;23.80;100972.00;;;;10444946;28;20912;-77
2021/05/03 15:09:52;;;;;;;4.05;3.38;;;;;24.80;100962.00;;;;10462187;28;20210;-77
2021/05/03 15:15:16;;;;;;;4.20;3.28;;;;;21.50;100953.00;;;;10482066;28;20691;-77
2021/05/03 15:25:23;;;;;;;4.70;2.97;;;;;18.50;100931.00;;;;10490640;28;20190;-77
2021/05/03 15:30:52;;;;;;;5.05;3.58;;;;;18.10;100913.00;;;;10484835;28;20499;-78
2021/05/03 15:35:49;;;;;;;4.05;3.60;;;;;18.30;100903.00;;;;10459487;28;20208;-77
2021/05/03 15:40:51;;;;;;;8.85;3.30;;;;;17.90;100909.00;;;;10444699;28;20194;-77
2021/05/03 15:45:53;;;;;;;3.47;3.03;;;;;17.80;100903.00;;;;10483008;28;20243;-77
2021/05/03 15:50:56;;;;;;;4.97;3.80;;;;;17.70;100896.00;;;;10483513;28;20209;-78
2021/05/03 15:56:00;;;;;;;5.60;3.70;;;;;17.00;100884.00;;;;10449422;28;20249;-77
2021/05/03 16:01:03;;;;;;;5.67;3.80;;;;;17.60;100880.00;;;;10465822;28;20185;-77
2021/05/03 16:06:08;;;;;;;6.28;3.80;;;;;20.00;100859.00;;;;10480704;28;20213;-77
2021/05/03 16:11:12;;;;;;;10.48;4.82;;;;;19.10;100845.00;;;;10464084;28;20198;-77
2021/05/03 16:16:13;;;;;;;6.40;4.70;;;;;19.00;100825.00;;;;10464078;28;20240;-77
2021/05/03 16:21:16;;;;;;;5.40;4.38;;;;;19.10;100812.00;;;;10459106;28;20190;-77
2021/05/03 16:26:18;;;;;;;6.05;5.47;;;;;18.90;100803.00;;;;10518796;28;20208;-77
2021/05/03 16:31:20;;;;;;;7.38;5.35;;;;;18.20;100808.00;;;;10484583;28;20576;-77
2021/05/03 16:36:22;;;;;;;7.18;4.57;;;;;17.40;100790.00;;;;10484217;28;20208;-77
2021/05/03 16:41:23;;;;;;;7.23;6.53;;;;;17.60;100782.00;;;;10470169;28;20185;-77
2021/05/03 16:46:28;;;;;;;6.53;5.37;;;;;17.40;100755.00;;;;10511034;28;20200;-77
2021/05/03 16:51:30;;;;;;;8.07;5.80;;;;;17.50;100755.00;;;;10506878;28;20568;-77
2021/05/03 16:56:31;;;;;;;8.13;6.20;;;;;17.60;100747.00;;;;10495683;28;20217;-78
2021/05/03 17:01:32;;;;;;;7.33;6.63;;;;;17.20;100720.00;;;;10468488;28;20198;-76
2021/05/03 17:06:34;;;;;;;9.73;6.37;;;;;17.00;100717.00;;;;10485959;28;20763;-77
2021/05/03 17:11:36;;;;;;;7.83;6.23;;;;;16.50;100723.00;;;;10486624;28;20213;-77
2021/05/03 17:16:41;;;;;;;6.67;6.07;;;;;16.40;100711.00;;;;10471151;28;20240;-77
2021/05/03 17:21:42;;;;;;;8.93;7.00;;;;;16.50;100696.00;;;;10503971;28;20196;-77
2021/05/03 17:26:47;;;;;;;7.57;5.97;;;;;16.10;100688.00;;;;10485830;28;20247;-77
2021/05/03 17:31:48;;;;;;;7.97;6.13;;;;;15.90;100669.00;;;;10467126;28;20205;-78
2021/05/03 17:36:50;;;;;;;7.27;5.57;;;;;16.00;100655.00;;;;10483027;28;20516;-77
2021/05/03 17:41:52;;;;;;;8.13;5.87;;;;;15.80;100649.00;;;;10471360;28;20197;-77
2021/05/03 17:46:53;;;;;;;7.00;5.57;;;;;15.60;100642.00;;;;10451475;28;20255;-77
2021/05/03 17:51:54;;;;;;;6.83;4.97;;;;;15.30;100633.00;;;;10444268;28;20210;-77
2021/05/03 17:56:56;;;;;;;6.07;5.47;;;;;15.00;100625.00;;;;10489933;28;20585;-77
2021/05/03 18:01:58;;;;;;;6.13;5.17;;;;;14.70;100620.00;;;;10457847;28;20194;-77
2021/05/03 18:06:59;;;;;;;8.90;5.97;;;;;14.70;100599.00;;;;10446837;28;20218;-77
2021/05/03 18:12:02;;;;;;;5.97;5.20;;;;;14.70;100586.00;;;;10450588;28;20202;-77
2021/05/03 18:17:04;;;;;;;6.93;5.50;;;;;14.50;100573.00;;;;10443032;28;20193;-77
2021/05/03 18:22:09;;;;;;;6.70;4.97;;;;;14.40;100572.00;;;;10482225;28;20201;-77
2021/05/03 18:27:11;;;;;;;5.60;4.87;;;;;14.30;100555.00;;;;10472119;28;20286;-76
2021/05/03 18:32:13;;;;;;;6.23;5.03;;;;;14.20;100547.00;;;;10512982;28;20252;-77
2021/05/03 18:37:14;;;;;;;5.13;4.63;;;;;14.00;100537.00;;;;10476804;28;20202;-77
2021/05/03 18:42:17;;;;;;;5.77;4.63;;;;;13.80;100538.00;;;;10459722;28;20649;-77
2021/05/03 18:47:18;;;;;;;7.50;4.73;;;;;13.60;100527.00;;;;10460304;28;20232;-77
2021/05/03 18:52:21;;;;;;;7.53;5.17;;;;;13.50;100510.00;;;;10460232;28;20210;-77
2021/05/03 18:57:23;;;;;;;6.73;4.40;;;;;13.30;100503.00;;;;10476959;28;20194;-77
2021/05/03 19:02:24;;;;;;;6.23;4.17;;;;;13.20;100493.00;;;;10490978;28;21080;-77
2021/05/03 19:07:27;;;;;;;5.67;5.00;;;;;13.10;100480.00;;;;10495099;28;20708;-78
2021/05/03 19:12:28;;;;;;;4.90;4.00;;;;;13.10;100491.00;;;;10496533;28;20201;-78
2021/05/03 19:17:30;;;;;;;8.33;4.70;;;;;13.10;100472.00;;;;10455269;28;20197;-78
2021/05/03 19:22:31;;;;;;;6.63;4.30;;;;;13.10;100468.00;;;;10453320;28;20216;-78
2021/05/03 19:27:33;;;;;;;4.67;4.07;;;;;13.00;100451.00;;;;10485636;28;20197;-79
2021/05/03 19:32:38;;;;;;;5.50;3.87;;;;;13.10;100437.00;;;;10438942;28;20308;-78
2021/05/03 19:37:39;;;;;;;5.00;3.80;;;;;13.10;100424.00;;;;10497848;28;20209;-79
2021/05/03 19:42:41;;;;;;;5.07;3.93;;;;;13.00;100421.00;;;;10497578;28;20209;-76
2021/05/03 19:47:42;;;;;;;5.20;3.60;;;;;13.00;100406.00;;;;10450079;28;20209;-77
2021/05/03 20:03:16;;;;;;;5.67;4.17;;;;;12.90;100357.00;;;;10442658;28;20194;-78
2021/05/03 20:08:18;;;;;;;6.47;4.97;;;;;12.90;100341.00;;;;10439591;28;20214;-78
2021/05/03 20:13:19;;;;;;;6.97;5.03;;;;;12.90;100321.00;;;;10427239;28;20281;-78
2021/05/03 20:18:21;;;;;;;5.77;4.70;;;;;12.90;100313.00;;;;10454912;28;20197;-76
2021/05/03 20:23:22;;;;;;;6.13;4.60;;;;;12.90;100302.00;;;;10432098;28;20197;-78
2021/05/03 20:28:24;;;;;;;6.37;4.70;;;;;12.80;100296.00;;;;10481618;28;20256;-77
2021/05/03 20:33:32;;;;;;;5.43;4.60;;;;;12.80;100270.00;;;;10449476;28;20225;-77
2021/05/03 20:38:59;;;;;;;6.00;4.73;;;;;12.80;100261.00;;;;10448487;28;20385;-78
2021/05/03 20:44:01;;;;;;;6.27;4.60;;;;;12.80;100237.00;;;;10427754;28;20270;-77
2021/05/03 20:49:03;;;;;;;6.77;4.60;;;;;12.70;100208.00;;;;10468089;28;20607;-78
2021/05/03 20:54:04;;;;;;;8.47;4.97;;;;;12.70;100184.00;;;;10518642;28;20239;-77
2021/05/03 20:59:06;;;;;;;7.00;4.47;;;;;12.70;100163.00;;;;10488225;28;20197;-78
2021/05/03 21:04:07;;;;;;;6.43;4.20;;;;;12.70;100166.00;;;;10454187;28;20276;-78
2021/05/03 21:09:09;;;;;;;6.67;4.53;;;;;12.70;100144.00;;;;10499524;28;20580;-78
2021/05/03 21:14:11;;;;;;;8.53;4.00;;;;;12.70;100117.00;;;;10471153;28;20217;-78
2021/05/03 21:19:12;;;;;;;5.27;3.63;;;;;12.70;100112.00;;;;10504460;28;20756;-78
2021/05/03 21:24:13;;;;;;;5.73;4.30;;;;;12.80;100104.00;;;;10487623;28;20205;-77
2021/05/03 21:29:15;;;;;;;4.27;3.20;;;;;12.80;100077.00;;;;10505318;28;20193;-78
2021/05/03 21:34:18;;;;;;;11.27;3.20;;;;;12.90;100075.00;;;;10453061;28;20217;-78
2021/05/03 21:39:19;;;;;;;5.40;2.93;;;;;12.90;100062.00;;;;10471515;28;20189;-78
2021/05/03 21:44:22;;;;;;;5.67;2.57;;;;;12.90;100045.00;;;;10450060;28;20207;-78
2021/05/03 21:49:24;;;;;;;4.17;2.27;;;;;12.90;100032.00;;;;10495421;28;20209;-78
2021/05/03 21:54:25;;;;;;;5.73;2.43;;;;;13.00;100021.00;;;;10481879;28;20217;-78
2021/05/03 21:59:26;;;;;;;4.03;2.40;;;;;13.00;100022.00;;;;10452525;28;20197;-79
2021/05/03 22:04:27;;;;;;;2.73;2.10;;;;;13.00;100005.00;;;;10477965;28;20693;-78
2021/05/03 22:09:29;;;;;;;3.13;1.80;;;;;13.00;99992.00;;;;10524528;28;20779;-79
2021/05/03 22:14:32;;;;;;;6.77;2.30;;;;;13.00;99989.00;;;;10484171;28;20654;-79
2021/05/03 22:19:51;;;;;;;4.60;1.83;;;;;13.00;99977.00;;;;10473209;28;20221;-78
2021/05/03 22:24:53;;;;;;;3.47;2.00;;;;;13.00;99951.00;;;;10455471;28;20197;-79
2021/05/03 22:29:54;;;;;;;2.40;1.80;;;;;13.00;99947.00;;;;10471829;28;20220;-78
2021/05/03 22:34:55;;;;;;;4.13;1.50;;;;;13.10;99935.00;;;;10455106;28;20217;-79
2021/05/03 22:40:57;;;;;;;3.03;1.50;;;;;13.20;99907.00;;;;10456208;28;20185;-78
2021/05/03 23:09:28;;;;;;;2.73;1.50;;;;;13.50;99813.00;;;;10469454;28;20244;-78
2021/05/03 23:17:17;;;;;;;3.53;1.73;;;;;13.50;99800.00;;;;10503167;28;20186;-77
2021/05/03 23:22:22;;;;;;;1.97;1.50;;;;;13.50;99782.00;;;;10467541;28;20200;-79
2021/05/03 23:27:24;;;;;;;4.53;1.60;;;;;13.50;99785.00;;;;10466835;28;20205;-78
2021/05/03 23:32:25;;;;;;;4.63;1.50;;;;;13.40;99763.00;;;;10468345;28;20896;-78
2021/05/03 23:37:28;;;;;;;5.17;1.70;;;;;13.20;99746.00;;;;10483779;28;20689;-77
2021/05/03 23:42:29;;;;;;;2.70;1.47;;;;;12.90;99745.00;;;;10469396;28;20457;-78
2021/05/03 23:47:31;;;;;;;3.40;1.87;;;;;12.60;99746.00;;;;10452546;28;20228;-78
2021/05/03 23:52:32;;;;;;;6.57;2.30;;;;;12.10;99774.00;;;;10468309;28;20212;-78
2021/05/03 23:57:33;;;;;;;3.70;2.07;;;;;11.10;99731.00;;;;10450859;28;20267;-78
